Philadelphia, Pennsylvania
Traffic Map
Current Weather Conditions
Philadelphia, Pennsylvania
Broken Clouds
Broken Clouds
77°
Feels Like: 78°
Wind Chill: 77° Ceiling: 25000
Heat Index: 78° Visibility: 10mi
Dew Point: 53° Wind: 10mph
Humidity: 43% Direction: 340° (NNW)
Pressure: 29.89in Gusts: 0mph
Raw Report DataKPHL 250054Z 34009KT 10SM FEW060 BKN250 25/12 A2989 RMK AO2 SLP122 T02500117 $
Traffic Incident Summary
Active as of:
Severity:
Category:
InformationThere was an issue retrieving the traffic information for this location. Please try a different location or try again shortly.
Advertisements
Track Severe Weather on mobile